sensor_id;sensor_type;location;lat;lon;timestamp;P1;durP1;ratioP1;P2;durP2;ratioP2
64938;SDS011;51453;47.738;7.420;2024-02-21T00:00:47;13.80;;;7.45;;
64938;SDS011;51453;47.738;7.420;2024-02-21T00:03:13;16.67;;;7.30;;
64938;SDS011;51453;47.738;7.420;2024-02-21T00:05:38;19.80;;;7.88;;
64938;SDS011;51453;47.738;7.420;2024-02-21T00:08:04;21.25;;;7.82;;
64938;SDS011;51453;47.738;7.420;2024-02-21T00:10:30;17.67;;;7.32;;
64938;SDS011;51453;47.738;7.420;2024-02-21T00:12:58;17.92;;;7.32;;
64938;SDS011;51453;47.738;7.420;2024-02-21T00:15:24;15.80;;;6.60;;
64938;SDS011;51453;47.738;7.420;2024-02-21T00:17:50;17.52;;;7.55;;
64938;SDS011;51453;47.738;7.420;2024-02-21T00:20:16;22.63;;;7.63;;
64938;SDS011;51453;47.738;7.420;2024-02-21T00:22:42;19.30;;;7.00;;
64938;SDS011;51453;47.738;7.420;2024-02-21T00:25:08;13.82;;;6.13;;
64938;SDS011;51453;47.738;7.420;2024-02-21T00:27:34;18.52;;;6.95;;
64938;SDS011;51453;47.738;7.420;2024-02-21T00:29:59;18.92;;;7.47;;
64938;SDS011;51453;47.738;7.420;2024-02-21T00:32:25;13.70;;;6.53;;
64938;SDS011;51453;47.738;7.420;2024-02-21T00:34:51;19.15;;;8.30;;
64938;SDS011;51453;47.738;7.420;2024-02-21T00:37:17;18.58;;;8.77;;
64938;SDS011;51453;47.738;7.420;2024-02-21T00:39:42;21.92;;;7.95;;
64938;SDS011;51453;47.738;7.420;2024-02-21T00:42:08;17.42;;;7.53;;
64938;SDS011;51453;47.738;7.420;2024-02-21T00:44:33;12.80;;;6.57;;
64938;SDS011;51453;47.738;7.420;2024-02-21T00:46:59;14.43;;;6.72;;
64938;SDS011;51453;47.738;7.420;2024-02-21T00:49:25;19.02;;;7.10;;
64938;SDS011;51453;47.738;7.420;2024-02-21T00:51:50;18.95;;;6.65;;
64938;SDS011;51453;47.738;7.420;2024-02-21T00:54:16;14.13;;;6.72;;
64938;SDS011;51453;47.738;7.420;2024-02-21T00:56:42;17.45;;;5.60;;
64938;SDS011;51453;47.738;7.420;2024-02-21T00:59:08;12.77;;;6.20;;
64938;SDS011;51453;47.738;7.420;2024-02-21T01:01:33;18.63;;;6.60;;
64938;SDS011;51453;47.738;7.420;2024-02-21T01:03:59;22.63;;;6.72;;
64938;SDS011;51453;47.738;7.420;2024-02-21T01:06:25;18.58;;;6.10;;
64938;SDS011;51453;47.738;7.420;2024-02-21T01:08:51;16.88;;;6.68;;
64938;SDS011;51453;47.738;7.420;2024-02-21T01:11:17;18.00;;;6.85;;
64938;SDS011;51453;47.738;7.420;2024-02-21T01:13:43;18.10;;;6.40;;
64938;SDS011;51453;47.738;7.420;2024-02-21T01:16:09;17.05;;;7.15;;
64938;SDS011;51453;47.738;7.420;2024-02-21T01:18:37;19.42;;;6.88;;
64938;SDS011;51453;47.738;7.420;2024-02-21T01:21:04;17.25;;;7.15;;
64938;SDS011;51453;47.738;7.420;2024-02-21T01:23:32;15.88;;;6.05;;
64938;SDS011;51453;47.738;7.420;2024-02-21T01:25:59;13.65;;;6.50;;
64938;SDS011;51453;47.738;7.420;2024-02-21T01:28:24;16.98;;;6.70;;
64938;SDS011;51453;47.738;7.420;2024-02-21T01:30:50;15.35;;;6.50;;
64938;SDS011;51453;47.738;7.420;2024-02-21T01:33:16;17.73;;;6.20;;
64938;SDS011;51453;47.738;7.420;2024-02-21T01:35:42;14.50;;;6.13;;
64938;SDS011;51453;47.738;7.420;2024-02-21T01:38:08;14.60;;;5.50;;
64938;SDS011;51453;47.738;7.420;2024-02-21T01:40:33;14.82;;;5.57;;
64938;SDS011;51453;47.738;7.420;2024-02-21T01:42:59;21.05;;;6.05;;
64938;SDS011;51453;47.738;7.420;2024-02-21T01:45:24;13.82;;;5.97;;
64938;SDS011;51453;47.738;7.420;2024-02-21T01:47:50;12.15;;;5.50;;
64938;SDS011;51453;47.738;7.420;2024-02-21T01:50:16;17.33;;;6.10;;
64938;SDS011;51453;47.738;7.420;2024-02-21T01:52:43;11.85;;;5.13;;
64938;SDS011;51453;47.738;7.420;2024-02-21T01:55:11;18.27;;;5.55;;
64938;SDS011;51453;47.738;7.420;2024-02-21T01:57:39;16.23;;;5.65;;
64938;SDS011;51453;47.738;7.420;2024-02-21T02:00:06;15.30;;;5.15;;
64938;SDS011;51453;47.738;7.420;2024-02-21T02:02:33;18.40;;;5.68;;
64938;SDS011;51453;47.738;7.420;2024-02-21T02:04:59;11.40;;;5.38;;
64938;SDS011;51453;47.738;7.420;2024-02-21T02:07:25;15.63;;;5.30;;
64938;SDS011;51453;47.738;7.420;2024-02-21T02:09:51;18.25;;;5.70;;
64938;SDS011;51453;47.738;7.420;2024-02-21T02:12:17;15.63;;;5.28;;
64938;SDS011;51453;47.738;7.420;2024-02-21T02:14:42;18.10;;;5.10;;
64938;SDS011;51453;47.738;7.420;2024-02-21T02:17:08;15.23;;;5.53;;
64938;SDS011;51453;47.738;7.420;2024-02-21T02:19:34;12.30;;;4.90;;
64938;SDS011;51453;47.738;7.420;2024-02-21T02:22:14;19.33;;;4.63;;
64938;SDS011;51453;47.738;7.420;2024-02-21T02:24:45;13.50;;;5.10;;
64938;SDS011;51453;47.738;7.420;2024-02-21T02:27:11;10.80;;;4.97;;
64938;SDS011;51453;47.738;7.420;2024-02-21T02:29:36;10.85;;;4.55;;
64938;SDS011;51453;47.738;7.420;2024-02-21T02:32:02;12.65;;;4.25;;
64938;SDS011;51453;47.738;7.420;2024-02-21T02:34:28;14.40;;;4.60;;
64938;SDS011;51453;47.738;7.420;2024-02-21T02:36:55;12.65;;;5.07;;
64938;SDS011;51453;47.738;7.420;2024-02-21T02:39:20;12.60;;;4.78;;
64938;SDS011;51453;47.738;7.420;2024-02-21T02:41:46;16.08;;;4.90;;
64938;SDS011;51453;47.738;7.420;2024-02-21T02:44:12;15.55;;;5.03;;
64938;SDS011;51453;47.738;7.420;2024-02-21T02:46:40;17.67;;;4.85;;
64938;SDS011;51453;47.738;7.420;2024-02-21T02:49:06;15.23;;;4.80;;
64938;SDS011;51453;47.738;7.420;2024-02-21T02:51:32;11.57;;;4.80;;
64938;SDS011;51453;47.738;7.420;2024-02-21T02:53:57;13.93;;;5.82;;
64938;SDS011;51453;47.738;7.420;2024-02-21T02:56:23;13.45;;;5.50;;
64938;SDS011;51453;47.738;7.420;2024-02-21T02:58:48;17.15;;;5.25;;
64938;SDS011;51453;47.738;7.420;2024-02-21T03:01:14;12.18;;;4.50;;
64938;SDS011;51453;47.738;7.420;2024-02-21T03:03:40;11.70;;;5.10;;
64938;SDS011;51453;47.738;7.420;2024-02-21T03:06:05;10.90;;;4.82;;
64938;SDS011;51453;47.738;7.420;2024-02-21T03:08:31;10.18;;;4.80;;
64938;SDS011;51453;47.738;7.420;2024-02-21T03:10:58;12.13;;;4.90;;
64938;SDS011;51453;47.738;7.420;2024-02-21T03:13:24;12.50;;;5.00;;
64938;SDS011;51453;47.738;7.420;2024-02-21T03:15:50;12.07;;;4.80;;
64938;SDS011;51453;47.738;7.420;2024-02-21T03:18:16;11.88;;;4.65;;
64938;SDS011;51453;47.738;7.420;2024-02-21T03:20:41;17.30;;;5.53;;
64938;SDS011;51453;47.738;7.420;2024-02-21T03:23:07;10.20;;;4.68;;
64938;SDS011;51453;47.738;7.420;2024-02-21T03:25:33;10.77;;;4.50;;
64938;SDS011;51453;47.738;7.420;2024-02-21T03:27:58;10.30;;;4.28;;
64938;SDS011;51453;47.738;7.420;2024-02-21T03:30:24;11.15;;;4.30;;
64938;SDS011;51453;47.738;7.420;2024-02-21T03:32:49;18.08;;;4.75;;
64938;SDS011;51453;47.738;7.420;2024-02-21T03:35:15;12.18;;;4.35;;
64938;SDS011;51453;47.738;7.420;2024-02-21T03:37:41;13.02;;;4.55;;
64938;SDS011;51453;47.738;7.420;2024-02-21T03:40:08;9.98;;;4.68;;
64938;SDS011;51453;47.738;7.420;2024-02-21T03:42:34;12.02;;;4.55;;
64938;SDS011;51453;47.738;7.420;2024-02-21T03:44:59;9.43;;;4.30;;
64938;SDS011;51453;47.738;7.420;2024-02-21T03:47:25;13.77;;;4.53;;
64938;SDS011;51453;47.738;7.420;2024-02-21T03:49:51;11.98;;;4.40;;
64938;SDS011;51453;47.738;7.420;2024-02-21T03:52:16;11.10;;;4.13;;
64938;SDS011;51453;47.738;7.420;2024-02-21T03:54:42;10.95;;;4.35;;
64938;SDS011;51453;47.738;7.420;2024-02-21T03:57:07;10.77;;;4.90;;
64938;SDS011;51453;47.738;7.420;2024-02-21T03:59:33;12.80;;;4.70;;
64938;SDS011;51453;47.738;7.420;2024-02-21T04:01:59;12.05;;;4.53;;
64938;SDS011;51453;47.738;7.420;2024-02-21T04:04:25;9.27;;;4.07;;
64938;SDS011;51453;47.738;7.420;2024-02-21T04:06:51;8.95;;;4.10;;
64938;SDS011;51453;47.738;7.420;2024-02-21T04:09:17;11.15;;;4.43;;
64938;SDS011;51453;47.738;7.420;2024-02-21T04:11:43;11.40;;;5.00;;
64938;SDS011;51453;47.738;7.420;2024-02-21T04:14:09;16.58;;;5.10;;
64938;SDS011;51453;47.738;7.420;2024-02-21T04:16:36;10.05;;;4.78;;
64938;SDS011;51453;47.738;7.420;2024-02-21T04:19:02;11.27;;;5.25;;
64938;SDS011;51453;47.738;7.420;2024-02-21T04:21:27;12.77;;;4.90;;
64938;SDS011;51453;47.738;7.420;2024-02-21T04:23:53;13.77;;;4.80;;
64938;SDS011;51453;47.738;7.420;2024-02-21T04:26:18;16.52;;;5.70;;
64938;SDS011;51453;47.738;7.420;2024-02-21T04:28:47;19.38;;;6.07;;
64938;SDS011;51453;47.738;7.420;2024-02-21T04:31:13;14.27;;;5.53;;
64938;SDS011;51453;47.738;7.420;2024-02-21T04:33:38;19.50;;;5.40;;
64938;SDS011;51453;47.738;7.420;2024-02-21T04:36:04;12.18;;;5.00;;
64938;SDS011;51453;47.738;7.420;2024-02-21T04:38:30;13.88;;;5.30;;
64938;SDS011;51453;47.738;7.420;2024-02-21T04:40:56;13.82;;;5.20;;
64938;SDS011;51453;47.738;7.420;2024-02-21T04:43:23;13.20;;;5.03;;
64938;SDS011;51453;47.738;7.420;2024-02-21T04:45:50;12.48;;;4.50;;
64938;SDS011;51453;47.738;7.420;2024-02-21T04:48:15;12.80;;;4.32;;
64938;SDS011;51453;47.738;7.420;2024-02-21T04:50:41;8.90;;;4.60;;
64938;SDS011;51453;47.738;7.420;2024-02-21T05:41:08;14.85;;;4.93;;
64938;SDS011;51453;47.738;7.420;2024-02-21T05:43:34;16.90;;;5.40;;
64938;SDS011;51453;47.738;7.420;2024-02-21T05:45:59;15.80;;;5.18;;
64938;SDS011;51453;47.738;7.420;2024-02-21T05:48:25;16.42;;;4.80;;
64938;SDS011;51453;47.738;7.420;2024-02-21T05:50:51;14.07;;;4.55;;
64938;SDS011;51453;47.738;7.420;2024-02-21T05:53:16;14.95;;;4.93;;
64938;SDS011;51453;47.738;7.420;2024-02-21T05:55:42;12.75;;;4.50;;
64938;SDS011;51453;47.738;7.420;2024-02-21T05:58:08;10.48;;;4.50;;
64938;SDS011;51453;47.738;7.420;2024-02-21T06:00:38;14.98;;;5.00;;
64938;SDS011;51453;47.738;7.420;2024-02-21T06:06:26;17.98;;;4.85;;
64938;SDS011;51453;47.738;7.420;2024-02-21T06:08:52;11.60;;;4.32;;
64938;SDS011;51453;47.738;7.420;2024-02-21T06:11:17;11.77;;;4.72;;
64938;SDS011;51453;47.738;7.420;2024-02-21T06:13:43;14.80;;;4.38;;
64938;SDS011;51453;47.738;7.420;2024-02-21T06:16:09;10.18;;;3.85;;
64938;SDS011;51453;47.738;7.420;2024-02-21T06:18:35;14.85;;;4.63;;
64938;SDS011;51453;47.738;7.420;2024-02-21T06:21:02;14.05;;;4.50;;
64938;SDS011;51453;47.738;7.420;2024-02-21T06:23:28;9.88;;;4.20;;
64938;SDS011;51453;47.738;7.420;2024-02-21T06:25:53;13.45;;;4.95;;
64938;SDS011;51453;47.738;7.420;2024-02-21T06:28:19;8.45;;;4.50;;
64938;SDS011;51453;47.738;7.420;2024-02-21T06:30:45;11.50;;;5.35;;
64938;SDS011;51453;47.738;7.420;2024-02-21T06:33:11;15.85;;;6.40;;
64938;SDS011;51453;47.738;7.420;2024-02-21T06:35:36;11.95;;;4.78;;
64938;SDS011;51453;47.738;7.420;2024-02-21T06:38:06;8.15;;;4.88;;
64938;SDS011;51453;47.738;7.420;2024-02-21T06:40:32;14.93;;;4.63;;
64938;SDS011;51453;47.738;7.420;2024-02-21T06:43:03;13.13;;;4.20;;
64938;SDS011;51453;47.738;7.420;2024-02-21T06:45:29;14.02;;;4.90;;
64938;SDS011;51453;47.738;7.420;2024-02-21T06:47:54;15.77;;;5.32;;
64938;SDS011;51453;47.738;7.420;2024-02-21T06:50:20;13.73;;;5.60;;
64938;SDS011;51453;47.738;7.420;2024-02-21T06:52:45;12.68;;;5.15;;
64938;SDS011;51453;47.738;7.420;2024-02-21T06:55:11;15.77;;;4.97;;
64938;SDS011;51453;47.738;7.420;2024-02-21T06:57:37;14.40;;;5.32;;
64938;SDS011;51453;47.738;7.420;2024-02-21T07:00:02;15.77;;;4.93;;
64938;SDS011;51453;47.738;7.420;2024-02-21T07:02:31;9.88;;;4.57;;
64938;SDS011;51453;47.738;7.420;2024-02-21T07:04:56;12.05;;;4.28;;
64938;SDS011;51453;47.738;7.420;2024-02-21T07:07:22;14.98;;;4.57;;
64938;SDS011;51453;47.738;7.420;2024-02-21T07:09:47;11.25;;;4.25;;
64938;SDS011;51453;47.738;7.420;2024-02-21T07:12:13;11.65;;;4.50;;
64938;SDS011;51453;47.738;7.420;2024-02-21T07:14:39;11.55;;;3.72;;
64938;SDS011;51453;47.738;7.420;2024-02-21T07:17:05;13.27;;;4.00;;
64938;SDS011;51453;47.738;7.420;2024-02-21T07:19:30;14.50;;;4.90;;
64938;SDS011;51453;47.738;7.420;2024-02-21T07:21:56;13.68;;;4.13;;
64938;SDS011;51453;47.738;7.420;2024-02-21T07:24:22;12.45;;;4.63;;
64938;SDS011;51453;47.738;7.420;2024-02-21T07:26:47;11.38;;;4.63;;
64938;SDS011;51453;47.738;7.420;2024-02-21T07:29:13;12.65;;;4.53;;
64938;SDS011;51453;47.738;7.420;2024-02-21T07:31:42;15.18;;;4.60;;
64938;SDS011;51453;47.738;7.420;2024-02-21T07:34:09;10.23;;;4.30;;
64938;SDS011;51453;47.738;7.420;2024-02-21T07:36:35;13.10;;;4.35;;
64938;SDS011;51453;47.738;7.420;2024-02-21T07:39:02;11.00;;;4.15;;
64938;SDS011;51453;47.738;7.420;2024-02-21T07:41:28;11.50;;;4.43;;
64938;SDS011;51453;47.738;7.420;2024-02-21T07:43:55;9.70;;;3.97;;
64938;SDS011;51453;47.738;7.420;2024-02-21T07:46:21;17.73;;;4.30;;
64938;SDS011;51453;47.738;7.420;2024-02-21T07:48:46;10.80;;;4.05;;
64938;SDS011;51453;47.738;7.420;2024-02-21T07:51:12;11.50;;;3.90;;
64938;SDS011;51453;47.738;7.420;2024-02-21T07:53:38;12.10;;;4.13;;
64938;SDS011;51453;47.738;7.420;2024-02-21T07:56:09;14.60;;;4.78;;
64938;SDS011;51453;47.738;7.420;2024-02-21T07:58:38;12.13;;;4.25;;
64938;SDS011;51453;47.738;7.420;2024-02-21T08:01:07;14.75;;;4.30;;
64938;SDS011;51453;47.738;7.420;2024-02-21T08:03:33;17.45;;;4.60;;
64938;SDS011;51453;47.738;7.420;2024-02-21T08:05:59;13.63;;;4.63;;
64938;SDS011;51453;47.738;7.420;2024-02-21T08:08:25;11.20;;;4.07;;
64938;SDS011;51453;47.738;7.420;2024-02-21T08:10:51;12.27;;;4.03;;
64938;SDS011;51453;47.738;7.420;2024-02-21T08:13:17;15.63;;;4.35;;
64938;SDS011;51453;47.738;7.420;2024-02-21T08:15:42;12.48;;;4.10;;
64938;SDS011;51453;47.738;7.420;2024-02-21T08:18:08;7.85;;;4.20;;
64938;SDS011;51453;47.738;7.420;2024-02-21T08:20:34;9.82;;;3.90;;
64938;SDS011;51453;47.738;7.420;2024-02-21T08:23:00;10.70;;;4.75;;
64938;SDS011;51453;47.738;7.420;2024-02-21T08:25:26;11.50;;;4.15;;
64938;SDS011;51453;47.738;7.420;2024-02-21T08:27:55;12.50;;;4.07;;
64938;SDS011;51453;47.738;7.420;2024-02-21T08:30:22;12.00;;;4.43;;
64938;SDS011;51453;47.738;7.420;2024-02-21T08:32:48;9.23;;;3.95;;
64938;SDS011;51453;47.738;7.420;2024-02-21T08:35:13;10.50;;;3.92;;
64938;SDS011;51453;47.738;7.420;2024-02-21T08:37:39;9.75;;;4.13;;
64938;SDS011;51453;47.738;7.420;2024-02-21T08:40:05;9.23;;;4.07;;
64938;SDS011;51453;47.738;7.420;2024-02-21T08:42:34;8.30;;;4.30;;
64938;SDS011;51453;47.738;7.420;2024-02-21T08:45:01;12.93;;;4.32;;
64938;SDS011;51453;47.738;7.420;2024-02-21T08:47:28;9.98;;;4.43;;
64938;SDS011;51453;47.738;7.420;2024-02-21T08:49:53;14.50;;;4.60;;
64938;SDS011;51453;47.738;7.420;2024-02-21T08:52:19;11.57;;;4.50;;
64938;SDS011;51453;47.738;7.420;2024-02-21T08:54:45;9.10;;;4.22;;
64938;SDS011;51453;47.738;7.420;2024-02-21T08:57:10;10.00;;;4.10;;
64938;SDS011;51453;47.738;7.420;2024-02-21T08:59:36;9.73;;;4.15;;
64938;SDS011;51453;47.738;7.420;2024-02-21T09:02:01;10.88;;;4.40;;
64938;SDS011;51453;47.738;7.420;2024-02-21T09:04:28;6.53;;;3.83;;
64938;SDS011;51453;47.738;7.420;2024-02-21T09:06:54;9.52;;;4.10;;
64938;SDS011;51453;47.738;7.420;2024-02-21T09:09:20;8.70;;;3.80;;
64938;SDS011;51453;47.738;7.420;2024-02-21T09:11:45;10.45;;;4.30;;
64938;SDS011;51453;47.738;7.420;2024-02-21T09:14:11;11.73;;;4.28;;
64938;SDS011;51453;47.738;7.420;2024-02-21T09:16:37;9.57;;;4.10;;
64938;SDS011;51453;47.738;7.420;2024-02-21T09:19:02;10.43;;;4.72;;
64938;SDS011;51453;47.738;7.420;2024-02-21T09:21:28;12.90;;;4.53;;
64938;SDS011;51453;47.738;7.420;2024-02-21T09:23:53;13.00;;;5.65;;
64938;SDS011;51453;47.738;7.420;2024-02-21T09:26:19;11.00;;;4.75;;
64938;SDS011;51453;47.738;7.420;2024-02-21T09:28:45;9.93;;;3.85;;
64938;SDS011;51453;47.738;7.420;2024-02-21T09:31:11;11.15;;;4.88;;
64938;SDS011;51453;47.738;7.420;2024-02-21T09:33:36;12.93;;;4.40;;
64938;SDS011;51453;47.738;7.420;2024-02-21T09:36:02;9.85;;;3.65;;
64938;SDS011;51453;47.738;7.420;2024-02-21T09:38:30;8.85;;;4.03;;
64938;SDS011;51453;47.738;7.420;2024-02-21T09:40:59;9.40;;;3.83;;
64938;SDS011;51453;47.738;7.420;2024-02-21T09:43:46;13.85;;;4.30;;
64938;SDS011;51453;47.738;7.420;2024-02-21T09:46:16;11.60;;;4.68;;
64938;SDS011;51453;47.738;7.420;2024-02-21T09:48:57;9.77;;;4.20;;
64938;SDS011;51453;47.738;7.420;2024-02-21T09:51:41;12.50;;;4.28;;
64938;SDS011;51453;47.738;7.420;2024-02-21T09:54:08;11.80;;;4.75;;
64938;SDS011;51453;47.738;7.420;2024-02-21T09:56:34;7.88;;;4.28;;
64938;SDS011;51453;47.738;7.420;2024-02-21T09:59:00;12.07;;;4.43;;
64938;SDS011;51453;47.738;7.420;2024-02-21T10:01:30;14.27;;;4.70;;
64938;SDS011;51453;47.738;7.420;2024-02-21T10:03:56;13.50;;;4.82;;
64938;SDS011;51453;47.738;7.420;2024-02-21T10:06:22;13.65;;;4.63;;
64938;SDS011;51453;47.738;7.420;2024-02-21T10:08:55;9.60;;;4.43;;
64938;SDS011;51453;47.738;7.420;2024-02-21T10:11:24;10.20;;;4.20;;
64938;SDS011;51453;47.738;7.420;2024-02-21T10:13:50;12.05;;;3.80;;
64938;SDS011;51453;47.738;7.420;2024-02-21T10:16:16;12.40;;;4.68;;
64938;SDS011;51453;47.738;7.420;2024-02-21T10:18:42;8.65;;;4.00;;
64938;SDS011;51453;47.738;7.420;2024-02-21T10:21:07;9.35;;;3.92;;
64938;SDS011;51453;47.738;7.420;2024-02-21T10:26:13;10.38;;;3.63;;
64938;SDS011;51453;47.738;7.420;2024-02-21T10:28:40;8.73;;;3.35;;
64938;SDS011;51453;47.738;7.420;2024-02-21T10:31:10;6.90;;;3.08;;
64938;SDS011;51453;47.738;7.420;2024-02-21T10:33:53;8.55;;;3.28;;
64938;SDS011;51453;47.738;7.420;2024-02-21T10:36:19;4.65;;;3.10;;
64938;SDS011;51453;47.738;7.420;2024-02-21T10:38:44;7.63;;;3.28;;
64938;SDS011;51453;47.738;7.420;2024-02-21T10:41:10;6.93;;;3.35;;
64938;SDS011;51453;47.738;7.420;2024-02-21T10:43:43;4.45;;;2.88;;
64938;SDS011;51453;47.738;7.420;2024-02-21T10:46:13;5.65;;;2.90;;
64938;SDS011;51453;47.738;7.420;2024-02-21T10:48:44;10.95;;;3.28;;
64938;SDS011;51453;47.738;7.420;2024-02-21T10:51:17;8.63;;;2.85;;
64938;SDS011;51453;47.738;7.420;2024-02-21T10:53:45;9.52;;;2.55;;
64938;SDS011;51453;47.738;7.420;2024-02-21T10:56:33;9.73;;;3.10;;
64938;SDS011;51453;47.738;7.420;2024-02-21T10:59:02;9.63;;;2.95;;
64938;SDS011;51453;47.738;7.420;2024-02-21T11:01:30;9.70;;;3.70;;
64938;SDS011;51453;47.738;7.420;2024-02-21T11:04:01;10.80;;;3.35;;
64938;SDS011;51453;47.738;7.420;2024-02-21T11:06:28;9.88;;;3.60;;
64938;SDS011;51453;47.738;7.420;2024-02-21T11:09:04;9.80;;;3.25;;
64938;SDS011;51453;47.738;7.420;2024-02-21T11:14:03;7.25;;;2.85;;
64938;SDS011;51453;47.738;7.420;2024-02-21T11:16:49;12.95;;;2.95;;
64938;SDS011;51453;47.738;7.420;2024-02-21T11:19:19;6.72;;;2.70;;
64938;SDS011;51453;47.738;7.420;2024-02-21T11:21:45;9.52;;;2.67;;
64938;SDS011;51453;47.738;7.420;2024-02-21T11:24:10;5.13;;;2.45;;
64938;SDS011;51453;47.738;7.420;2024-02-21T11:26:37;9.38;;;2.65;;
64938;SDS011;51453;47.738;7.420;2024-02-21T11:29:03;11.43;;;2.85;;
64938;SDS011;51453;47.738;7.420;2024-02-21T11:31:42;12.32;;;2.78;;
64938;SDS011;51453;47.738;7.420;2024-02-21T11:34:09;5.75;;;2.30;;
64938;SDS011;51453;47.738;7.420;2024-02-21T11:36:35;5.55;;;2.40;;
64938;SDS011;51453;47.738;7.420;2024-02-21T11:39:05;7.57;;;2.53;;
64938;SDS011;51453;47.738;7.420;2024-02-21T11:41:31;7.50;;;2.72;;
64938;SDS011;51453;47.738;7.420;2024-02-21T11:43:57;6.65;;;2.60;;
64938;SDS011;51453;47.738;7.420;2024-02-21T11:46:22;5.25;;;2.67;;
64938;SDS011;51453;47.738;7.420;2024-02-21T11:48:48;9.82;;;2.97;;
64938;SDS011;51453;47.738;7.420;2024-02-21T11:51:25;9.70;;;3.20;;
64938;SDS011;51453;47.738;7.420;2024-02-21T11:53:52;8.18;;;2.72;;
64938;SDS011;51453;47.738;7.420;2024-02-21T11:56:18;8.70;;;2.60;;
64938;SDS011;51453;47.738;7.420;2024-02-21T11:58:45;8.18;;;2.42;;
64938;SDS011;51453;47.738;7.420;2024-02-21T12:01:12;4.07;;;1.85;;
64938;SDS011;51453;47.738;7.420;2024-02-21T12:03:38;4.82;;;2.17;;
64938;SDS011;51453;47.738;7.420;2024-02-21T12:06:06;6.05;;;2.13;;
64938;SDS011;51453;47.738;7.420;2024-02-21T12:08:44;3.95;;;1.88;;
64938;SDS011;51453;47.738;7.420;2024-02-21T12:11:20;5.13;;;1.67;;
64938;SDS011;51453;47.738;7.420;2024-02-21T12:13:59;8.23;;;2.55;;
64938;SDS011;51453;47.738;7.420;2024-02-21T12:16:30;5.57;;;2.05;;
64938;SDS011;51453;47.738;7.420;2024-02-21T12:18:57;5.90;;;2.25;;
64938;SDS011;51453;47.738;7.420;2024-02-21T12:21:24;4.18;;;1.67;;
64938;SDS011;51453;47.738;7.420;2024-02-21T12:23:54;5.50;;;1.75;;
64938;SDS011;51453;47.738;7.420;2024-02-21T12:26:21;4.15;;;1.48;;
64938;SDS011;51453;47.738;7.420;2024-02-21T12:28:47;3.83;;;1.30;;
64938;SDS011;51453;47.738;7.420;2024-02-21T12:31:12;4.55;;;1.65;;
64938;SDS011;51453;47.738;7.420;2024-02-21T12:33:38;4.97;;;1.33;;
64938;SDS011;51453;47.738;7.420;2024-02-21T12:36:04;4.85;;;1.60;;
64938;SDS011;51453;47.738;7.420;2024-02-21T12:38:30;3.45;;;1.75;;
64938;SDS011;51453;47.738;7.420;2024-02-21T12:40:56;6.53;;;1.60;;
64938;SDS011;51453;47.738;7.420;2024-02-21T12:43:25;5.68;;;1.83;;
64938;SDS011;51453;47.738;7.420;2024-02-21T12:45:51;4.32;;;1.60;;
64938;SDS011;51453;47.738;7.420;2024-02-21T12:48:17;2.72;;;1.48;;
64938;SDS011;51453;47.738;7.420;2024-02-21T12:55:40;5.55;;;1.60;;
64938;SDS011;51453;47.738;7.420;2024-02-21T12:58:06;5.63;;;1.40;;
64938;SDS011;51453;47.738;7.420;2024-02-21T13:00:32;7.53;;;1.60;;
64938;SDS011;51453;47.738;7.420;2024-02-21T13:03:00;4.53;;;1.35;;
64938;SDS011;51453;47.738;7.420;2024-02-21T13:05:25;2.72;;;1.25;;
64938;SDS011;51453;47.738;7.420;2024-02-21T13:07:52;4.88;;;1.67;;
64938;SDS011;51453;47.738;7.420;2024-02-21T13:10:18;3.97;;;1.60;;
64938;SDS011;51453;47.738;7.420;2024-02-21T13:12:44;2.60;;;1.40;;
64938;SDS011;51453;47.738;7.420;2024-02-21T13:15:10;3.67;;;1.25;;
64938;SDS011;51453;47.738;7.420;2024-02-21T13:17:37;4.20;;;1.70;;
64938;SDS011;51453;47.738;7.420;2024-02-21T13:20:03;2.72;;;1.50;;
64938;SDS011;51453;47.738;7.420;2024-02-21T13:22:29;2.28;;;1.23;;
64938;SDS011;51453;47.738;7.420;2024-02-21T13:24:54;4.22;;;1.50;;
64938;SDS011;51453;47.738;7.420;2024-02-21T13:27:20;3.45;;;1.60;;
64938;SDS011;51453;47.738;7.420;2024-02-21T13:29:46;3.28;;;1.40;;
64938;SDS011;51453;47.738;7.420;2024-02-21T13:32:11;3.53;;;1.52;;
64938;SDS011;51453;47.738;7.420;2024-02-21T13:34:37;5.50;;;1.65;;
64938;SDS011;51453;47.738;7.420;2024-02-21T13:37:03;2.75;;;1.70;;
64938;SDS011;51453;47.738;7.420;2024-02-21T13:39:29;5.50;;;1.40;;
64938;SDS011;51453;47.738;7.420;2024-02-21T13:41:55;5.85;;;1.77;;
64938;SDS011;51453;47.738;7.420;2024-02-21T13:44:21;5.50;;;1.52;;
64938;SDS011;51453;47.738;7.420;2024-02-21T13:46:46;7.22;;;1.40;;
64938;SDS011;51453;47.738;7.420;2024-02-21T13:49:12;6.10;;;1.60;;
64938;SDS011;51453;47.738;7.420;2024-02-21T13:51:37;3.28;;;1.50;;
64938;SDS011;51453;47.738;7.420;2024-02-21T13:54:03;4.50;;;1.77;;
64938;SDS011;51453;47.738;7.420;2024-02-21T13:56:30;6.60;;;1.70;;
64938;SDS011;51453;47.738;7.420;2024-02-21T13:58:57;4.45;;;1.50;;
64938;SDS011;51453;47.738;7.420;2024-02-21T14:01:24;3.35;;;1.40;;
64938;SDS011;51453;47.738;7.420;2024-02-21T14:03:51;3.25;;;1.73;;
64938;SDS011;51453;47.738;7.420;2024-02-21T14:06:16;4.25;;;1.88;;
64938;SDS011;51453;47.738;7.420;2024-02-21T14:08:42;3.88;;;1.67;;
64938;SDS011;51453;47.738;7.420;2024-02-21T14:11:08;2.95;;;1.70;;
64938;SDS011;51453;47.738;7.420;2024-02-21T14:13:34;5.97;;;1.67;;
64938;SDS011;51453;47.738;7.420;2024-02-21T14:16:00;5.05;;;2.10;;
64938;SDS011;51453;47.738;7.420;2024-02-21T14:18:25;6.75;;;1.70;;
64938;SDS011;51453;47.738;7.420;2024-02-21T14:20:52;2.75;;;1.50;;
64938;SDS011;51453;47.738;7.420;2024-02-21T14:23:18;5.75;;;2.40;;
64938;SDS011;51453;47.738;7.420;2024-02-21T14:25:43;4.97;;;1.80;;
64938;SDS011;51453;47.738;7.420;2024-02-21T14:28:09;5.55;;;1.75;;
64938;SDS011;51453;47.738;7.420;2024-02-21T14:30:34;2.90;;;1.80;;
64938;SDS011;51453;47.738;7.420;2024-02-21T14:33:01;4.65;;;1.95;;
64938;SDS011;51453;47.738;7.420;2024-02-21T14:35:26;7.60;;;1.80;;
64938;SDS011;51453;47.738;7.420;2024-02-21T14:37:52;5.43;;;2.38;;
64938;SDS011;51453;47.738;7.420;2024-02-21T14:40:20;5.10;;;2.20;;
64938;SDS011;51453;47.738;7.420;2024-02-21T14:42:46;6.05;;;2.00;;
64938;SDS011;51453;47.738;7.420;2024-02-21T14:45:11;5.45;;;1.85;;
64938;SDS011;51453;47.738;7.420;2024-02-21T14:47:38;3.13;;;1.77;;
64938;SDS011;51453;47.738;7.420;2024-02-21T14:50:04;5.32;;;1.83;;
64938;SDS011;51453;47.738;7.420;2024-02-21T14:52:32;4.80;;;1.77;;
64938;SDS011;51453;47.738;7.420;2024-02-21T14:54:58;4.32;;;1.90;;
64938;SDS011;51453;47.738;7.420;2024-02-21T14:57:24;5.45;;;1.98;;
64938;SDS011;51453;47.738;7.420;2024-02-21T14:59:50;4.63;;;2.08;;
64938;SDS011;51453;47.738;7.420;2024-02-21T15:02:21;7.40;;;2.28;;
64938;SDS011;51453;47.738;7.420;2024-02-21T15:04:48;5.38;;;1.75;;
64938;SDS011;51453;47.738;7.420;2024-02-21T15:07:13;6.07;;;2.05;;
64938;SDS011;51453;47.738;7.420;2024-02-21T15:09:39;11.98;;;2.60;;
64938;SDS011;51453;47.738;7.420;2024-02-21T15:12:05;8.40;;;2.40;;
64938;SDS011;51453;47.738;7.420;2024-02-21T15:14:31;7.22;;;2.70;;
64938;SDS011;51453;47.738;7.420;2024-02-21T15:16:57;3.17;;;2.33;;
64938;SDS011;51453;47.738;7.420;2024-02-21T15:19:22;4.30;;;2.20;;
64938;SDS011;51453;47.738;7.420;2024-02-21T15:21:48;4.55;;;2.28;;
64938;SDS011;51453;47.738;7.420;2024-02-21T15:24:13;5.43;;;2.00;;
64938;SDS011;51453;47.738;7.420;2024-02-21T15:26:39;5.45;;;2.28;;
64938;SDS011;51453;47.738;7.420;2024-02-21T15:29:09;7.40;;;3.13;;
64938;SDS011;51453;47.738;7.420;2024-02-21T15:31:34;6.93;;;2.70;;
64938;SDS011;51453;47.738;7.420;2024-02-21T15:34:00;7.45;;;2.40;;
64938;SDS011;51453;47.738;7.420;2024-02-21T15:36:26;6.47;;;2.45;;
64938;SDS011;51453;47.738;7.420;2024-02-21T15:38:53;4.72;;;2.65;;